Maebashi, Japan

5:10 PM JST on October 25, 2014 (GMT +0900)
Yokota Air Base | Change Station
CLOSE
Current Station
Airport
Location: Yokota AB,
Elevation: 456 ft
Nearby Weather Stations

Elev 456 ft 35.75 °N, 139.35 °E | Updated 12 minutes ago

Scattered Clouds
Scattered Clouds
67 °F
Feels Like 67 °F
N
9
Wind Variable Wind from South

Today
High -- | Low -- °F
--% Chance of Precip.
Yesterday
High -- | Low -- °F
Precip. -- in
5:59 AM 4:55 PM
New Moon, 2% visible
Pressure 30.24 in
Visibility 10.0 miles
Clouds Scattered Clouds 17000 ft
Dew Point 59 °F
Humidity 77%
Rainfall 0.00 in
Snow Depth Not available.
UV 0 out of 12
Pollen Not available.
Air Quality Not available.
Flu Activity Not available.
METAR RJTY 250758Z AUTO 17008KT 10SM SCT170 19/15 A3023 RMK AO2 SLP240 T01920150

More Conditions Fewer Conditions

Pressure 30.24 in
Visibility 10.0 miles
Clouds Scattered Clouds 17000 ft
Dew Point 59 °F
Humidity 77%
Rainfall 0.00 in
Snow Depth Not available.
UV 0 out of 12
Pollen Not available.
Air Quality Not available.
Flu Activity Not available.
METAR RJTY 250758Z AUTO 17008KT 10SM SCT170 19/15 A3023 RMK AO2 SLP240 T01920150

More Conditions Fewer Conditions

10-Day Weather Forecast

Almanac

Astronomy

Oct. 25, 2014 Rise Set
Actual Time 5:59 AM JST 4:55 PM JST
Civil Twilight 5:33 AM JST 5:21 PM JST
Nautical Twilight 5:03 AM JST 5:52 PM JST
Astronomical Twilight 4:33 AM JST 6:21 PM JST
Moon 6:58 AM JST 5:52 PM JST
Length of Visible Light 11h 48m
Length of Day
10h 56m
Tomorrow will be 2m 7s shorter.
New Moon, 2% of the Moon is Illuminated
Today
New Moon
Oct 30
First Quarter
Nov 6
Full
Nov 14
Last Quarter
Nov 22
New

Yesterday's Extremes

Country Highs Country Lows

Community

WunderPhotos

Upload Photos

1,764,791 photos uploaded!

Nearby

Snow Depth

Not available.

Earthquake Activity

City Distance Mag. Time & Date
No recent earthquake activity has been reported nearby.
Minimum magnitude displayed is 2.5.

Coastal Water Temperatures

Place Temperature
No Stations Reporting

Nearby Weather Stations